sensor_id;sensor_type;location;lat;lon;timestamp;P1;durP1;ratioP1;P2;durP2;ratioP2
7917;SDS011;4004;42.624;23.386;2022-11-18T00:01:04;11.93;;;10.20;;
7917;SDS011;4004;42.624;23.386;2022-11-18T00:03:32;16.07;;;11.13;;
7917;SDS011;4004;42.624;23.386;2022-11-18T00:05:58;14.43;;;11.33;;
7917;SDS011;4004;42.624;23.386;2022-11-18T00:08:25;13.00;;;11.63;;
7917;SDS011;4004;42.624;23.386;2022-11-18T00:10:52;16.40;;;13.60;;
7917;SDS011;4004;42.624;23.386;2022-11-18T00:13:19;19.40;;;14.50;;
7917;SDS011;4004;42.624;23.386;2022-11-18T00:16:01;18.23;;;14.63;;
7917;SDS011;4004;42.624;23.386;2022-11-18T00:18:29;18.73;;;15.00;;
7917;SDS011;4004;42.624;23.386;2022-11-18T00:20:59;21.60;;;15.53;;
7917;SDS011;4004;42.624;23.386;2022-11-18T00:23:27;17.60;;;13.47;;
7917;SDS011;4004;42.624;23.386;2022-11-18T00:25:54;16.37;;;13.40;;
7917;SDS011;4004;42.624;23.386;2022-11-18T00:28:21;16.53;;;14.07;;
7917;SDS011;4004;42.624;23.386;2022-11-18T00:30:47;20.50;;;15.40;;
7917;SDS011;4004;42.624;23.386;2022-11-18T00:33:15;13.30;;;11.57;;
7917;SDS011;4004;42.624;23.386;2022-11-18T00:35:42;14.57;;;12.57;;
7917;SDS011;4004;42.624;23.386;2022-11-18T00:38:09;15.80;;;12.37;;
7917;SDS011;4004;42.624;23.386;2022-11-18T00:40:35;13.43;;;9.00;;
7917;SDS011;4004;42.624;23.386;2022-11-18T00:43:02;13.77;;;9.87;;
7917;SDS011;4004;42.624;23.386;2022-11-18T00:45:28;11.27;;;9.27;;
7917;SDS011;4004;42.624;23.386;2022-11-18T00:47:54;11.60;;;10.40;;
7917;SDS011;4004;42.624;23.386;2022-11-18T00:50:22;13.63;;;11.50;;
7917;SDS011;4004;42.624;23.386;2022-11-18T00:52:50;13.30;;;11.60;;
7917;SDS011;4004;42.624;23.386;2022-11-18T00:55:16;13.47;;;11.07;;
7917;SDS011;4004;42.624;23.386;2022-11-18T00:57:43;17.77;;;15.17;;
7917;SDS011;4004;42.624;23.386;2022-11-18T01:00:10;17.07;;;14.77;;
7917;SDS011;4004;42.624;23.386;2022-11-18T01:02:37;16.90;;;12.43;;
7917;SDS011;4004;42.624;23.386;2022-11-18T01:05:04;14.37;;;12.40;;
7917;SDS011;4004;42.624;23.386;2022-11-18T01:07:32;15.23;;;12.23;;
7917;SDS011;4004;42.624;23.386;2022-11-18T01:09:59;14.37;;;12.90;;
7917;SDS011;4004;42.624;23.386;2022-11-18T01:12:25;15.00;;;12.23;;
7917;SDS011;4004;42.624;23.386;2022-11-18T01:15:09;15.47;;;11.63;;
7917;SDS011;4004;42.624;23.386;2022-11-18T01:17:36;16.43;;;13.17;;
7917;SDS011;4004;42.624;23.386;2022-11-18T01:20:03;19.17;;;15.50;;
7917;SDS011;4004;42.624;23.386;2022-11-18T01:22:30;19.13;;;16.13;;
7917;SDS011;4004;42.624;23.386;2022-11-18T01:24:58;18.67;;;14.67;;
7917;SDS011;4004;42.624;23.386;2022-11-18T01:27:25;16.47;;;13.93;;
7917;SDS011;4004;42.624;23.386;2022-11-18T01:29:52;15.47;;;13.40;;
7917;SDS011;4004;42.624;23.386;2022-11-18T01:32:19;17.27;;;13.37;;
7917;SDS011;4004;42.624;23.386;2022-11-18T01:34:45;23.23;;;14.23;;
7917;SDS011;4004;42.624;23.386;2022-11-18T01:37:12;15.57;;;13.97;;
7917;SDS011;4004;42.624;23.386;2022-11-18T01:39:40;16.93;;;12.73;;
7917;SDS011;4004;42.624;23.386;2022-11-18T01:42:10;13.77;;;12.37;;
7917;SDS011;4004;42.624;23.386;2022-11-18T01:44:54;13.73;;;12.33;;
7917;SDS011;4004;42.624;23.386;2022-11-18T01:47:24;16.33;;;12.60;;
7917;SDS011;4004;42.624;23.386;2022-11-18T01:49:53;15.10;;;12.83;;
7917;SDS011;4004;42.624;23.386;2022-11-18T01:52:21;15.20;;;11.97;;
7917;SDS011;4004;42.624;23.386;2022-11-18T01:54:50;15.07;;;12.73;;
7917;SDS011;4004;42.624;23.386;2022-11-18T01:57:20;15.27;;;12.83;;
7917;SDS011;4004;42.624;23.386;2022-11-18T01:59:52;12.80;;;11.53;;
7917;SDS011;4004;42.624;23.386;2022-11-18T02:02:22;14.80;;;13.20;;
7917;SDS011;4004;42.624;23.386;2022-11-18T02:04:50;14.53;;;12.50;;
7917;SDS011;4004;42.624;23.386;2022-11-18T02:07:19;12.90;;;11.50;;
7917;SDS011;4004;42.624;23.386;2022-11-18T02:09:47;19.47;;;15.00;;
7917;SDS011;4004;42.624;23.386;2022-11-18T02:12:17;14.00;;;12.50;;
7917;SDS011;4004;42.624;23.386;2022-11-18T02:14:44;16.13;;;13.30;;
7917;SDS011;4004;42.624;23.386;2022-11-18T02:17:14;15.33;;;12.83;;
7917;SDS011;4004;42.624;23.386;2022-11-18T02:19:51;22.40;;;12.63;;
7917;SDS011;4004;42.624;23.386;2022-11-18T02:22:52;412.83;;;23.47;;
7917;SDS011;4004;42.624;23.386;2022-11-18T02:25:40;26.20;;;15.50;;
7917;SDS011;4004;42.624;23.386;2022-11-18T02:28:21;375.60;;;21.37;;
7917;SDS011;4004;42.624;23.386;2022-11-18T02:31:04;163.90;;;16.50;;
7917;SDS011;4004;42.624;23.386;2022-11-18T02:33:35;225.13;;;17.60;;
7917;SDS011;4004;42.624;23.386;2022-11-18T02:36:09;93.40;;;13.33;;
7917;SDS011;4004;42.624;23.386;2022-11-18T02:38:41;32.33;;;12.03;;
7917;SDS011;4004;42.624;23.386;2022-11-18T02:41:13;13.60;;;10.23;;
7917;SDS011;4004;42.624;23.386;2022-11-18T02:43:44;12.03;;;10.40;;
7917;SDS011;4004;42.624;23.386;2022-11-18T02:46:16;13.23;;;11.17;;
7917;SDS011;4004;42.624;23.386;2022-11-18T02:48:46;13.83;;;10.60;;
7917;SDS011;4004;42.624;23.386;2022-11-18T02:51:16;12.07;;;10.77;;
7917;SDS011;4004;42.624;23.386;2022-11-18T02:53:47;17.20;;;12.40;;
7917;SDS011;4004;42.624;23.386;2022-11-18T02:56:15;14.13;;;11.37;;
7917;SDS011;4004;42.624;23.386;2022-11-18T02:58:45;17.60;;;13.47;;
7917;SDS011;4004;42.624;23.386;2022-11-18T03:01:17;18.80;;;16.13;;
7917;SDS011;4004;42.624;23.386;2022-11-18T03:03:46;15.90;;;14.13;;
7917;SDS011;4004;42.624;23.386;2022-11-18T03:06:18;16.03;;;13.57;;
7917;SDS011;4004;42.624;23.386;2022-11-18T03:08:54;16.97;;;14.07;;
7917;SDS011;4004;42.624;23.386;2022-11-18T03:11:28;15.97;;;12.37;;
7917;SDS011;4004;42.624;23.386;2022-11-18T03:14:06;13.97;;;12.07;;
7917;SDS011;4004;42.624;23.386;2022-11-18T03:16:38;15.73;;;13.67;;
7917;SDS011;4004;42.624;23.386;2022-11-18T03:19:12;18.70;;;14.50;;
7917;SDS011;4004;42.624;23.386;2022-11-18T03:21:44;22.37;;;15.30;;
7917;SDS011;4004;42.624;23.386;2022-11-18T03:24:18;20.00;;;15.30;;
7917;SDS011;4004;42.624;23.386;2022-11-18T03:26:52;19.40;;;14.60;;
7917;SDS011;4004;42.624;23.386;2022-11-18T03:29:27;19.87;;;15.87;;
7917;SDS011;4004;42.624;23.386;2022-11-18T03:32:00;18.00;;;16.03;;
7917;SDS011;4004;42.624;23.386;2022-11-18T03:34:32;21.63;;;16.73;;
7917;SDS011;4004;42.624;23.386;2022-11-18T03:37:04;19.27;;;15.67;;
7917;SDS011;4004;42.624;23.386;2022-11-18T03:39:35;19.40;;;17.23;;
7917;SDS011;4004;42.624;23.386;2022-11-18T03:42:05;21.27;;;17.37;;
7917;SDS011;4004;42.624;23.386;2022-11-18T03:44:42;21.57;;;16.87;;
7917;SDS011;4004;42.624;23.386;2022-11-18T03:47:15;23.07;;;16.30;;
7917;SDS011;4004;42.624;23.386;2022-11-18T03:49:46;16.67;;;13.33;;
7917;SDS011;4004;42.624;23.386;2022-11-18T03:52:18;18.40;;;15.53;;
7917;SDS011;4004;42.624;23.386;2022-11-18T03:54:49;20.53;;;18.00;;
7917;SDS011;4004;42.624;23.386;2022-11-18T03:57:19;20.10;;;17.47;;
7917;SDS011;4004;42.624;23.386;2022-11-18T03:59:51;37.40;;;15.70;;
7917;SDS011;4004;42.624;23.386;2022-11-18T04:02:26;366.60;;;27.13;;
7917;SDS011;4004;42.624;23.386;2022-11-18T04:04:55;65.53;;;15.63;;
7917;SDS011;4004;42.624;23.386;2022-11-18T04:07:26;278.40;;;19.83;;
7917;SDS011;4004;42.624;23.386;2022-11-18T04:09:59;634.17;;;32.43;;
7917;SDS011;4004;42.624;23.386;2022-11-18T04:12:30;486.10;;;30.83;;
7917;SDS011;4004;42.624;23.386;2022-11-18T04:15:00;28.00;;;20.67;;
7917;SDS011;4004;42.624;23.386;2022-11-18T04:17:28;263.17;;;21.13;;
7917;SDS011;4004;42.624;23.386;2022-11-18T04:19:55;236.10;;;22.60;;
7917;SDS011;4004;42.624;23.386;2022-11-18T04:22:22;242.93;;;24.77;;
7917;SDS011;4004;42.624;23.386;2022-11-18T04:24:48;637.63;;;37.73;;
7917;SDS011;4004;42.624;23.386;2022-11-18T04:27:15;529.13;;;35.40;;
7917;SDS011;4004;42.624;23.386;2022-11-18T04:29:42;412.90;;;31.23;;
7917;SDS011;4004;42.624;23.386;2022-11-18T04:32:08;246.77;;;30.93;;
7917;SDS011;4004;42.624;23.386;2022-11-18T04:34:37;220.00;;;31.00;;
7917;SDS011;4004;42.624;23.386;2022-11-18T04:37:03;199.53;;;29.53;;
7917;SDS011;4004;42.624;23.386;2022-11-18T04:39:30;667.50;;;43.23;;
7917;SDS011;4004;42.624;23.386;2022-11-18T04:41:57;493.93;;;38.57;;
7917;SDS011;4004;42.624;23.386;2022-11-18T04:44:24;386.70;;;37.70;;
7917;SDS011;4004;42.624;23.386;2022-11-18T04:46:52;413.00;;;37.50;;
7917;SDS011;4004;42.624;23.386;2022-11-18T04:49:20;361.53;;;32.77;;
7917;SDS011;4004;42.624;23.386;2022-11-18T04:51:48;446.30;;;38.37;;
7917;SDS011;4004;42.624;23.386;2022-11-18T04:54:16;366.33;;;34.53;;
7917;SDS011;4004;42.624;23.386;2022-11-18T04:56:43;260.90;;;35.47;;
7917;SDS011;4004;42.624;23.386;2022-11-18T04:59:11;463.20;;;39.73;;
7917;SDS011;4004;42.624;23.386;2022-11-18T05:01:39;262.77;;;31.27;;
7917;SDS011;4004;42.624;23.386;2022-11-18T05:04:06;353.23;;;33.23;;
7917;SDS011;4004;42.624;23.386;2022-11-18T05:06:37;230.17;;;31.60;;
7917;SDS011;4004;42.624;23.386;2022-11-18T05:09:05;265.63;;;31.07;;
7917;SDS011;4004;42.624;23.386;2022-11-18T05:11:32;134.00;;;25.70;;
7917;SDS011;4004;42.624;23.386;2022-11-18T05:14:16;142.47;;;25.83;;
7917;SDS011;4004;42.624;23.386;2022-11-18T05:16:43;225.63;;;29.53;;
7917;SDS011;4004;42.624;23.386;2022-11-18T05:19:09;104.10;;;27.43;;
7917;SDS011;4004;42.624;23.386;2022-11-18T05:21:36;198.83;;;32.40;;
7917;SDS011;4004;42.624;23.386;2022-11-18T05:24:05;201.67;;;28.87;;
7917;SDS011;4004;42.624;23.386;2022-11-18T05:26:32;320.10;;;29.27;;
7917;SDS011;4004;42.624;23.386;2022-11-18T05:28:59;221.43;;;30.17;;
7917;SDS011;4004;42.624;23.386;2022-11-18T05:31:25;285.13;;;32.03;;
7917;SDS011;4004;42.624;23.386;2022-11-18T05:33:52;141.97;;;32.70;;
7917;SDS011;4004;42.624;23.386;2022-11-18T05:36:19;96.00;;;32.13;;
7917;SDS011;4004;42.624;23.386;2022-11-18T05:38:46;87.10;;;27.97;;
7917;SDS011;4004;42.624;23.386;2022-11-18T05:41:14;126.80;;;56.53;;
7917;SDS011;4004;42.624;23.386;2022-11-18T05:43:55;164.63;;;33.87;;
7917;SDS011;4004;42.624;23.386;2022-11-18T05:46:22;185.53;;;33.37;;
7917;SDS011;4004;42.624;23.386;2022-11-18T05:48:49;210.23;;;34.90;;
7917;SDS011;4004;42.624;23.386;2022-11-18T05:51:16;76.57;;;25.97;;
7917;SDS011;4004;42.624;23.386;2022-11-18T05:53:43;88.63;;;27.40;;
7917;SDS011;4004;42.624;23.386;2022-11-18T05:56:13;99.90;;;26.00;;
7917;SDS011;4004;42.624;23.386;2022-11-18T05:58:45;62.37;;;25.33;;
7917;SDS011;4004;42.624;23.386;2022-11-18T06:01:12;139.50;;;25.60;;
7917;SDS011;4004;42.624;23.386;2022-11-18T06:03:43;133.33;;;27.17;;
7917;SDS011;4004;42.624;23.386;2022-11-18T06:06:10;141.20;;;23.20;;
7917;SDS011;4004;42.624;23.386;2022-11-18T06:08:41;182.17;;;72.60;;
7917;SDS011;4004;42.624;23.386;2022-11-18T06:11:13;80.77;;;48.57;;
7917;SDS011;4004;42.624;23.386;2022-11-18T06:13:45;92.43;;;30.83;;
7917;SDS011;4004;42.624;23.386;2022-11-18T06:16:15;87.23;;;27.07;;
7917;SDS011;4004;42.624;23.386;2022-11-18T06:18:42;90.37;;;27.73;;
7917;SDS011;4004;42.624;23.386;2022-11-18T06:21:09;139.97;;;28.30;;
7917;SDS011;4004;42.624;23.386;2022-11-18T06:23:36;162.03;;;27.60;;
7917;SDS011;4004;42.624;23.386;2022-11-18T06:26:06;205.60;;;30.27;;
7917;SDS011;4004;42.624;23.386;2022-11-18T06:28:37;95.03;;;24.13;;
7917;SDS011;4004;42.624;23.386;2022-11-18T06:31:05;144.30;;;28.57;;
7917;SDS011;4004;42.624;23.386;2022-11-18T06:33:32;89.97;;;29.03;;
7917;SDS011;4004;42.624;23.386;2022-11-18T06:35:58;223.20;;;28.53;;
7917;SDS011;4004;42.624;23.386;2022-11-18T06:38:25;150.73;;;27.53;;
7917;SDS011;4004;42.624;23.386;2022-11-18T06:40:52;89.07;;;27.87;;
7917;SDS011;4004;42.624;23.386;2022-11-18T06:43:19;151.70;;;27.20;;
7917;SDS011;4004;42.624;23.386;2022-11-18T06:46:07;232.67;;;30.37;;
7917;SDS011;4004;42.624;23.386;2022-11-18T06:48:52;335.70;;;29.40;;
7917;SDS011;4004;42.624;23.386;2022-11-18T06:51:19;224.47;;;26.47;;
7917;SDS011;4004;42.624;23.386;2022-11-18T06:53:46;152.80;;;26.70;;
7917;SDS011;4004;42.624;23.386;2022-11-18T06:56:13;318.77;;;29.03;;
7917;SDS011;4004;42.624;23.386;2022-11-18T06:58:41;330.50;;;27.97;;
7917;SDS011;4004;42.624;23.386;2022-11-18T07:01:10;190.53;;;26.07;;
7917;SDS011;4004;42.624;23.386;2022-11-18T07:03:38;307.33;;;26.87;;
7917;SDS011;4004;42.624;23.386;2022-11-18T07:06:05;136.80;;;25.53;;
7917;SDS011;4004;42.624;23.386;2022-11-18T07:08:33;254.47;;;25.10;;
7917;SDS011;4004;42.624;23.386;2022-11-18T07:11:01;528.27;;;29.40;;
7917;SDS011;4004;42.624;23.386;2022-11-18T07:13:29;264.00;;;24.40;;
7917;SDS011;4004;42.624;23.386;2022-11-18T07:16:00;180.40;;;21.47;;
7917;SDS011;4004;42.624;23.386;2022-11-18T07:18:30;306.73;;;22.87;;
7917;SDS011;4004;42.624;23.386;2022-11-18T07:20:59;198.50;;;24.07;;
7917;SDS011;4004;42.624;23.386;2022-11-18T07:23:27;105.90;;;23.70;;
7917;SDS011;4004;42.624;23.386;2022-11-18T07:25:53;239.77;;;25.17;;
7917;SDS011;4004;42.624;23.386;2022-11-18T07:28:20;414.67;;;26.00;;
7917;SDS011;4004;42.624;23.386;2022-11-18T07:30:47;256.93;;;31.27;;
7917;SDS011;4004;42.624;23.386;2022-11-18T07:33:14;233.13;;;30.80;;
7917;SDS011;4004;42.624;23.386;2022-11-18T07:35:42;127.93;;;31.43;;
7917;SDS011;4004;42.624;23.386;2022-11-18T07:38:09;364.00;;;34.10;;
7917;SDS011;4004;42.624;23.386;2022-11-18T07:40:35;286.20;;;36.13;;
7917;SDS011;4004;42.624;23.386;2022-11-18T07:43:02;249.60;;;34.77;;
7917;SDS011;4004;42.624;23.386;2022-11-18T07:45:29;228.13;;;34.33;;
7917;SDS011;4004;42.624;23.386;2022-11-18T07:47:56;153.77;;;32.07;;
7917;SDS011;4004;42.624;23.386;2022-11-18T07:50:22;84.00;;;28.07;;
7917;SDS011;4004;42.624;23.386;2022-11-18T07:52:50;113.70;;;26.20;;
7917;SDS011;4004;42.624;23.386;2022-11-18T07:55:20;143.40;;;23.93;;
7917;SDS011;4004;42.624;23.386;2022-11-18T07:57:47;233.93;;;31.60;;
7917;SDS011;4004;42.624;23.386;2022-11-18T08:00:14;108.43;;;28.33;;
7917;SDS011;4004;42.624;23.386;2022-11-18T08:02:41;194.13;;;25.30;;
7917;SDS011;4004;42.624;23.386;2022-11-18T08:05:08;271.33;;;26.97;;
7917;SDS011;4004;42.624;23.386;2022-11-18T08:07:35;257.33;;;27.60;;
7917;SDS011;4004;42.624;23.386;2022-11-18T08:10:03;62.13;;;24.03;;
7917;SDS011;4004;42.624;23.386;2022-11-18T08:12:30;42.37;;;23.10;;
7917;SDS011;4004;42.624;23.386;2022-11-18T08:14:57;34.63;;;22.43;;
7917;SDS011;4004;42.624;23.386;2022-11-18T08:17:23;49.80;;;24.80;;
7917;SDS011;4004;42.624;23.386;2022-11-18T08:19:50;46.90;;;26.37;;
7917;SDS011;4004;42.624;23.386;2022-11-18T08:22:17;47.13;;;25.03;;
7917;SDS011;4004;42.624;23.386;2022-11-18T08:24:45;38.33;;;24.00;;
7917;SDS011;4004;42.624;23.386;2022-11-18T08:27:13;32.73;;;19.97;;
7917;SDS011;4004;42.624;23.386;2022-11-18T08:29:39;32.13;;;21.00;;
7917;SDS011;4004;42.624;23.386;2022-11-18T08:32:06;15.53;;;12.90;;
7917;SDS011;4004;42.624;23.386;2022-11-18T08:34:33;9.23;;;7.73;;
7917;SDS011;4004;42.624;23.386;2022-11-18T08:37:00;15.17;;;11.20;;
7917;SDS011;4004;42.624;23.386;2022-11-18T08:39:27;21.57;;;14.43;;
7917;SDS011;4004;42.624;23.386;2022-11-18T08:41:53;21.40;;;15.10;;
7917;SDS011;4004;42.624;23.386;2022-11-18T08:44:24;18.80;;;13.17;;
7917;SDS011;4004;42.624;23.386;2022-11-18T08:46:51;17.90;;;13.90;;
7917;SDS011;4004;42.624;23.386;2022-11-18T08:49:18;17.40;;;14.70;;
7917;SDS011;4004;42.624;23.386;2022-11-18T08:51:44;17.83;;;14.67;;
7917;SDS011;4004;42.624;23.386;2022-11-18T08:54:11;24.23;;;18.87;;
7917;SDS011;4004;42.624;23.386;2022-11-18T08:56:38;30.80;;;21.93;;
7917;SDS011;4004;42.624;23.386;2022-11-18T08:59:05;38.07;;;26.90;;
7917;SDS011;4004;42.624;23.386;2022-11-18T09:01:34;27.43;;;20.37;;
7917;SDS011;4004;42.624;23.386;2022-11-18T09:04:01;36.60;;;24.40;;
7917;SDS011;4004;42.624;23.386;2022-11-18T09:06:27;30.23;;;22.73;;
7917;SDS011;4004;42.624;23.386;2022-11-18T09:08:54;27.73;;;21.57;;
7917;SDS011;4004;42.624;23.386;2022-11-18T09:11:22;26.60;;;20.47;;
7917;SDS011;4004;42.624;23.386;2022-11-18T09:13:50;38.23;;;20.83;;
7917;SDS011;4004;42.624;23.386;2022-11-18T09:16:17;32.50;;;19.40;;
7917;SDS011;4004;42.624;23.386;2022-11-18T09:18:46;20.93;;;14.70;;
7917;SDS011;4004;42.624;23.386;2022-11-18T09:21:12;26.33;;;18.73;;
7917;SDS011;4004;42.624;23.386;2022-11-18T09:23:39;33.33;;;21.40;;
7917;SDS011;4004;42.624;23.386;2022-11-18T09:26:06;26.27;;;21.73;;
7917;SDS011;4004;42.624;23.386;2022-11-18T09:28:35;27.70;;;21.33;;
7917;SDS011;4004;42.624;23.386;2022-11-18T09:31:02;35.93;;;23.20;;
7917;SDS011;4004;42.624;23.386;2022-11-18T09:33:30;33.10;;;23.43;;
7917;SDS011;4004;42.624;23.386;2022-11-18T09:35:58;36.90;;;24.23;;
7917;SDS011;4004;42.624;23.386;2022-11-18T09:38:24;41.33;;;25.83;;
7917;SDS011;4004;42.624;23.386;2022-11-18T09:40:55;41.40;;;25.30;;
7917;SDS011;4004;42.624;23.386;2022-11-18T09:43:29;45.63;;;26.60;;
7917;SDS011;4004;42.624;23.386;2022-11-18T09:46:08;50.97;;;28.27;;
7917;SDS011;4004;42.624;23.386;2022-11-18T09:48:45;45.80;;;28.57;;
7917;SDS011;4004;42.624;23.386;2022-11-18T09:51:33;50.10;;;31.47;;
7917;SDS011;4004;42.624;23.386;2022-11-18T09:54:06;50.43;;;31.03;;
7917;SDS011;4004;42.624;23.386;2022-11-18T09:56:35;53.73;;;34.37;;
7917;SDS011;4004;42.624;23.386;2022-11-18T09:59:02;60.37;;;34.83;;
7917;SDS011;4004;42.624;23.386;2022-11-18T10:01:30;58.20;;;34.73;;
7917;SDS011;4004;42.624;23.386;2022-11-18T10:03:56;54.10;;;34.63;;
7917;SDS011;4004;42.624;23.386;2022-11-18T10:06:23;51.53;;;35.07;;
7917;SDS011;4004;42.624;23.386;2022-11-18T10:09:01;54.47;;;33.73;;
7917;SDS011;4004;42.624;23.386;2022-11-18T10:11:36;55.67;;;35.93;;
7917;SDS011;4004;42.624;23.386;2022-11-18T10:14:10;52.57;;;35.63;;
7917;SDS011;4004;42.624;23.386;2022-11-18T10:16:46;68.60;;;42.43;;
7917;SDS011;4004;42.624;23.386;2022-11-18T10:19:19;61.63;;;39.17;;
7917;SDS011;4004;42.624;23.386;2022-11-18T10:21:59;66.77;;;41.57;;
7917;SDS011;4004;42.624;23.386;2022-11-18T10:24:41;60.33;;;37.60;;
7917;SDS011;4004;42.624;23.386;2022-11-18T10:27:12;63.03;;;39.80;;
7917;SDS011;4004;42.624;23.386;2022-11-18T10:29:40;53.77;;;39.00;;
7917;SDS011;4004;42.624;23.386;2022-11-18T10:32:10;46.60;;;32.97;;
7917;SDS011;4004;42.624;23.386;2022-11-18T10:34:44;39.53;;;25.17;;
7917;SDS011;4004;42.624;23.386;2022-11-18T10:37:20;38.13;;;27.43;;
7917;SDS011;4004;42.624;23.386;2022-11-18T10:39:51;19.23;;;10.80;;
7917;SDS011;4004;42.624;23.386;2022-11-18T10:42:20;6.40;;;3.63;;
7917;SDS011;4004;42.624;23.386;2022-11-18T10:44:52;2.57;;;1.80;;
7917;SDS011;4004;42.624;23.386;2022-11-18T10:47:23;4.37;;;1.80;;
7917;SDS011;4004;42.624;23.386;2022-11-18T10:49:52;1.93;;;1.60;;
7917;SDS011;4004;42.624;23.386;2022-11-18T10:52:20;12.37;;;2.50;;
7917;SDS011;4004;42.624;23.386;2022-11-18T10:57:35;4.07;;;2.27;;
7917;SDS011;4004;42.624;23.386;2022-11-18T11:00:30;2.53;;;1.60;;
7917;SDS011;4004;42.624;23.386;2022-11-18T11:02:59;29.17;;;17.93;;
7917;SDS011;4004;42.624;23.386;2022-11-18T11:05:26;34.33;;;21.63;;
7917;SDS011;4004;42.624;23.386;2022-11-18T11:08:00;31.37;;;19.50;;
7917;SDS011;4004;42.624;23.386;2022-11-18T11:10:30;23.97;;;13.93;;
7917;SDS011;4004;42.624;23.386;2022-11-18T11:12:58;23.17;;;15.47;;
7917;SDS011;4004;42.624;23.386;2022-11-18T11:15:31;27.33;;;16.50;;
7917;SDS011;4004;42.624;23.386;2022-11-18T11:18:02;36.63;;;18.40;;
7917;SDS011;4004;42.624;23.386;2022-11-18T11:20:50;38.30;;;21.30;;
7917;SDS011;4004;42.624;23.386;2022-11-18T11:23:17;34.43;;;20.60;;
7917;SDS011;4004;42.624;23.386;2022-11-18T11:25:46;40.73;;;23.47;;
7917;SDS011;4004;42.624;23.386;2022-11-18T11:28:20;29.43;;;20.07;;
7917;SDS011;4004;42.624;23.386;2022-11-18T11:30:58;32.57;;;21.03;;
7917;SDS011;4004;42.624;23.386;2022-11-18T11:33:34;9.10;;;4.87;;
7917;SDS011;4004;42.624;23.386;2022-11-18T11:36:14;26.30;;;15.50;;
7917;SDS011;4004;42.624;23.386;2022-11-18T11:39:05;35.07;;;20.10;;
7917;SDS011;4004;42.624;23.386;2022-11-18T11:41:50;42.40;;;25.87;;
7917;SDS011;4004;42.624;23.386;2022-11-18T11:44:28;43.57;;;27.50;;
7917;SDS011;4004;42.624;23.386;2022-11-18T11:47:08;50.67;;;30.30;;
7917;SDS011;4004;42.624;23.386;2022-11-18T11:50:00;59.20;;;35.03;;
7917;SDS011;4004;42.624;23.386;2022-11-18T11:52:35;44.03;;;26.57;;
7917;SDS011;4004;42.624;23.386;2022-11-18T11:55:15;41.23;;;24.20;;
7917;SDS011;4004;42.624;23.386;2022-11-18T11:57:59;37.27;;;24.30;;
7917;SDS011;4004;42.624;23.386;2022-11-18T12:00:32;35.53;;;23.10;;
7917;SDS011;4004;42.624;23.386;2022-11-18T12:03:10;36.33;;;21.83;;
7917;SDS011;4004;42.624;23.386;2022-11-18T12:05:48;27.73;;;19.23;;
7917;SDS011;4004;42.624;23.386;2022-11-18T12:08:15;31.67;;;20.57;;
7917;SDS011;4004;42.624;23.386;2022-11-18T12:10:46;30.43;;;19.77;;
7917;SDS011;4004;42.624;23.386;2022-11-18T12:13:19;25.07;;;18.27;;
7917;SDS011;4004;42.624;23.386;2022-11-18T12:15:57;29.97;;;18.13;;
7917;SDS011;4004;42.624;23.386;2022-11-18T12:18:33;31.07;;;16.40;;
7917;SDS011;4004;42.624;23.386;2022-11-18T12:21:03;24.43;;;18.20;;
7917;SDS011;4004;42.624;23.386;2022-11-18T12:23:30;26.77;;;19.20;;
7917;SDS011;4004;42.624;23.386;2022-11-18T12:25:59;28.13;;;18.83;;
7917;SDS011;4004;42.624;23.386;2022-11-18T12:28:30;34.27;;;17.57;;
7917;SDS011;4004;42.624;23.386;2022-11-18T12:34:02;24.10;;;17.30;;
7917;SDS011;4004;42.624;23.386;2022-11-18T12:36:44;25.70;;;18.17;;
7917;SDS011;4004;42.624;23.386;2022-11-18T12:42:35;32.97;;;19.33;;
7917;SDS011;4004;42.624;23.386;2022-11-18T12:54:19;31.03;;;18.27;;
7917;SDS011;4004;42.624;23.386;2022-11-18T12:56:51;22.63;;;16.07;;
7917;SDS011;4004;42.624;23.386;2022-11-18T12:59:24;19.00;;;12.10;;
7917;SDS011;4004;42.624;23.386;2022-11-18T13:02:01;24.40;;;16.83;;
7917;SDS011;4004;42.624;23.386;2022-11-18T13:04:41;25.43;;;17.43;;
7917;SDS011;4004;42.624;23.386;2022-11-18T13:07:10;22.00;;;14.50;;
7917;SDS011;4004;42.624;23.386;2022-11-18T13:09:59;21.53;;;14.27;;
7917;SDS011;4004;42.624;23.386;2022-11-18T13:12:27;11.63;;;7.37;;
7917;SDS011;4004;42.624;23.386;2022-11-18T13:14:56;20.27;;;12.57;;
7917;SDS011;4004;42.624;23.386;2022-11-18T13:17:45;30.97;;;14.73;;
7917;SDS011;4004;42.624;23.386;2022-11-18T13:20:19;26.93;;;14.67;;
7917;SDS011;4004;42.624;23.386;2022-11-18T13:22:48;16.23;;;9.73;;
7917;SDS011;4004;42.624;23.386;2022-11-18T13:25:34;5.97;;;4.27;;
7917;SDS011;4004;42.624;23.386;2022-11-18T13:28:02;15.00;;;6.50;;
7917;SDS011;4004;42.624;23.386;2022-11-18T13:30:35;5.97;;;3.60;;
7917;SDS011;4004;42.624;23.386;2022-11-18T13:33:13;4.57;;;2.77;;
7917;SDS011;4004;42.624;23.386;2022-11-18T13:35:39;6.17;;;4.07;;
7917;SDS011;4004;42.624;23.386;2022-11-18T13:38:15;4.87;;;2.20;;
7917;SDS011;4004;42.624;23.386;2022-11-18T13:40:46;5.87;;;3.57;;
7917;SDS011;4004;42.624;23.386;2022-11-18T13:43:28;7.47;;;3.73;;
7917;SDS011;4004;42.624;23.386;2022-11-18T13:45:56;4.77;;;3.10;;
7917;SDS011;4004;42.624;23.386;2022-11-18T13:48:26;5.10;;;3.43;;
7917;SDS011;4004;42.624;23.386;2022-11-18T13:50:54;7.70;;;3.30;;
7917;SDS011;4004;42.624;23.386;2022-11-18T13:53:26;4.77;;;2.10;;
7917;SDS011;4004;42.624;23.386;2022-11-18T13:55:56;2.00;;;1.80;;
7917;SDS011;4004;42.624;23.386;2022-11-18T13:58:33;2.20;;;1.90;;
7917;SDS011;4004;42.624;23.386;2022-11-18T14:01:04;5.73;;;3.07;;
7917;SDS011;4004;42.624;23.386;2022-11-18T14:03:44;3.43;;;1.83;;
7917;SDS011;4004;42.624;23.386;2022-11-18T14:06:28;5.17;;;2.10;;
7917;SDS011;4004;42.624;23.386;2022-11-18T14:09:06;1.70;;;1.60;;
7917;SDS011;4004;42.624;23.386;2022-11-18T14:11:42;8.70;;;3.27;;
7917;SDS011;4004;42.624;23.386;2022-11-18T14:14:11;2.03;;;1.83;;
7917;SDS011;4004;42.624;23.386;2022-11-18T14:16:52;4.23;;;2.90;;
7917;SDS011;4004;42.624;23.386;2022-11-18T14:19:27;3.37;;;1.93;;
7917;SDS011;4004;42.624;23.386;2022-11-18T14:22:01;6.70;;;2.40;;
7917;SDS011;4004;42.624;23.386;2022-11-18T14:24:29;4.33;;;2.10;;
7917;SDS011;4004;42.624;23.386;2022-11-18T14:26:56;3.10;;;1.70;;
7917;SDS011;4004;42.624;23.386;2022-11-18T14:29:22;2.63;;;1.70;;
7917;SDS011;4004;42.624;23.386;2022-11-18T14:32:11;7.33;;;2.57;;
7917;SDS011;4004;42.624;23.386;2022-11-18T14:34:40;3.73;;;1.80;;
7917;SDS011;4004;42.624;23.386;2022-11-18T14:37:08;3.30;;;1.90;;
7917;SDS011;4004;42.624;23.386;2022-11-18T14:39:37;5.77;;;2.63;;
7917;SDS011;4004;42.624;23.386;2022-11-18T14:42:04;3.00;;;2.13;;
7917;SDS011;4004;42.624;23.386;2022-11-18T14:44:35;3.33;;;2.50;;
7917;SDS011;4004;42.624;23.386;2022-11-18T14:47:03;3.60;;;2.03;;
7917;SDS011;4004;42.624;23.386;2022-11-18T14:49:36;5.17;;;1.70;;
7917;SDS011;4004;42.624;23.386;2022-11-18T14:52:04;5.83;;;3.53;;
7917;SDS011;4004;42.624;23.386;2022-11-18T14:54:31;4.87;;;1.80;;
7917;SDS011;4004;42.624;23.386;2022-11-18T14:56:59;3.57;;;2.20;;
7917;SDS011;4004;42.624;23.386;2022-11-18T14:59:27;3.23;;;2.20;;
7917;SDS011;4004;42.624;23.386;2022-11-18T15:01:54;2.57;;;1.87;;
7917;SDS011;4004;42.624;23.386;2022-11-18T15:04:22;3.03;;;2.27;;
7917;SDS011;4004;42.624;23.386;2022-11-18T15:06:50;2.63;;;1.63;;
7917;SDS011;4004;42.624;23.386;2022-11-18T15:09:18;4.03;;;2.00;;
7917;SDS011;4004;42.624;23.386;2022-11-18T15:11:45;3.40;;;2.13;;
7917;SDS011;4004;42.624;23.386;2022-11-18T15:14:11;3.20;;;1.77;;